AirNav   Air Wisconsin Up To $57,000 Bonus
 
 895 users online  

T15 Marlin Airport
Marlin, Texas, USA

GOING TO MARLIN?


FAA INFORMATION EFFECTIVE 08 OCTOBER 2020

Location

FAA Identifier: T15
Lat/Long: 31-20-26.4000N 096-51-07.3000W
31-20.440000N 096-51.121667W
31.3406667,-96.8520278
(estimated)
Elevation: 410.7 ft. / 125.2 m (surveyed)
Variation: 05E (2000)
From city: 3 miles NE of MARLIN, TX
Time zone: UTC -5 (UTC -6 during Standard Time)
Zip code: 76661

Airport Operations

Airport use: Open to the public
Activation date: 07/1960
Control tower: no
ARTCC: FORT WORTH CENTER
FSS: FORT WORTH FLIGHT SERVICE STATION
NOTAMs facility: FTW (NOTAM-D service available)
Attendance: UNATNDD
Wind indicator: lighted, WINDSOCK MAY BE UNREL DUE TO TREES IN PROXIMITY AND MAST NOT VERTICAL.
Segmented circle: yes
Lights: SS-SR
Beacon: white-green (lighted land airport)
Operates sunset to sunrise.

Airport Communications

CTAF: 122.9
WACO APPROACH: 127.65
WACO DEPARTURE: 127.65
  • APCH/DEP SVC PRVDD BY FORT WORTH ARTCC ON FREQS 133.3/269.5 (WACO RCAG) WHEN WACO APCH CTL CLSD.

Nearby radio navigation aids

VOR radial/distance  VOR name  Freq  Var
ACTr123/28.8WACO VORTAC115.3009E

 
NDB name  Hdg/Dist  Freq  Var  ID
ROBINSON128/14.840003EROB .-. --- -...
MEXIA220/25.032904ELXY .-.. -..- -.--

Airport Services

Parking: tiedowns
Airframe service: NONE
Powerplant service: NONE
Bottled oxygen: NONE
Bulk oxygen: NONE

Runway Information

Runway 17/35

Dimensions: 3021 x 50 ft. / 921 x 15 m
Surface: asphalt, in fair condition
CRACKS W/VEGETATION GROWING THROUGH PVMNT.
Weight bearing capacity: 
Single wheel: 4.0
Runway edge lights: low intensity
RWY 17/35 NSTD LIRL NON STD FIXTURES, NON-FRANGIBLE MOUNTING. NMRS LIGHTS KNOCKED OVER. OPR STATUS OF LIGHTS UNKNOWN. VEGETATION OBSCURES LIGHTS; NORTH 2900 FT LGTD.
Runway edge markings: MKGS FADED. NSTD DSPLCD THLD MKGS YELLOW.
RUNWAY 17  RUNWAY 35
Latitude: 31-20.689823N31-20.191620N
Longitude: 096-51.116752W096-51.127988W
Elevation: 410.4 ft.401.9 ft.
Traffic pattern: leftleft
Runway heading: 176 magnetic, 181 true356 magnetic, 001 true
Displaced threshold: no90 ft.
Markings: basic, in poor conditionbasic, in poor condition
Touchdown point: yes, no lightsyes, no lights
Obstructions: 54 ft. trees, 1030 ft. from runway, 15:1 slope to clear
+8 FT BRUSH 60 FT FM THLD 100 FT L OF CNTRLN.
8 ft. fence, 201 ft. from runway, 75 ft. right of centerline
+8 FT FENCE 50 FT RIGHT & 80-200 FT SOUTH OF DSPLCD THLD.

Airport Ownership and Management from official FAA records

Ownership: Publicly-owned
Owner: CITY OF MARLIN
PO BOX 980
MARLIN, TX 76661
Phone 254-883-1450
Manager: ANDREW POE
PO BOX 980
MARLIN, TX 76661
Phone 254-883-1450
EXT 237.

Airport Operational Statistics

Aircraft based on the field: 1
Single engine airplanes: 1
    
Aircraft operations: avg 29/month *
86% transient general aviation
14% military
* for 12-month period ending 16 April 2019

Additional Remarks

RWY 35 DSPLCD THLD MKGS NOT COINCIDENT WITH DSPLCD THLD LIGHTS.
FOR CD CTC FORT WORTH ARTCC AT 817-858-7584.

Instrument Procedures

NOTE: All procedures below are presented as PDF files. If you need a reader for these files, you should download the free Adobe Reader.

NOT FOR NAVIGATION. Please procure official charts for flight.
FAA instrument procedures published for use from 08 October 2020 at 0901Z to 05 November 2020 at 0900Z.

 
IAPs - Instrument Approach Procedures
VOR/DME OR GPS-A   download (177KB)
NOTE: Special Take-Off Minimums/Departure Procedures apply   download (70KB)

Other nearby airports with instrument procedures:

KCNW - TSTC Waco Airport (21 nm NW)
KLXY - Mexia-Limestone County Airport (25 nm NE)
KACT - Waco Regional Airport (25 nm NW)
KPWG - Mc Gregor Executive Airport (25 nm W)
KLHB - Hearne Municipal Airport (30 nm SE)
 
Loc | Ops | Rwys | IFR | FBO | Links
Com | Nav | Svcs | Stats | Notes

City of Fort Worth
 
Area around T15 (Marlin Airport)
 
Road maps at: MapQuest Bing Google
 
Aerial photo
WARNING: Photo may not be current or correct
Aerial photo of T15 (Marlin Airport)
Do you have a better or more recent aerial photo of Marlin Airport that you would like to share? If so, please send us your photo.

 
Sectional chart

 
Airport distance calculator
Flying to Marlin Airport? Find the distance to fly.

From to T15

Sunrise and sunset
Times for 25-Oct-2020
 Local
(UTC-5)
 Zulu
(UTC)
Morning civil twilight07:1512:15
Sunrise07:3912:39
Sunset18:4323:43
Evening civil twilight19:0800:08

Current date and time
Zulu (UTC)  26-Oct-2020 02:32:25
Local (UTC-5)  25-Oct-2020 21:32:25
 
METAR
KCNW 
21nm NW 
260155Z 08007KT 10SM OVC008 18/17 A2993
KPWG 
25nm W 
260156Z AUTO 10SM A2993 RMK AO2 SLPNO FZRANO $
KLXY 
25nm NE 
260215Z AUTO 08006KT 10SM OVC005 17/17 A2994 RMK AO2 T01730170
KACT 
26nm NW 
260151Z 06008KT 10SM OVC009 19/16 A2992 RMK AO2 SLP129 T01890161
KT35 
28nm S 
260215Z AUTO 11008KT 10SM SCT016 OVC022 21/18 A2989 RMK AO2 T02050181 TSNO
KLHB 
31nm SE 
260215Z AUTO 09007KT 10SM OVC015 21/18 A2991 RMK AO2 T02060180
KTPL 
31nm SW 
260211Z AUTO 07008KT 10SM OVC008 19/18 A2991 RMK AO2
TAF
KACT 
26nm NW 
252105Z 2521/2618 11006KT P6SM OVC017 FM260300 12010KT 5SM BR OVC011 FM260600 10011KT 3SM -DZ BR OVC007
NOTAMs
Click for the latest NOTAMs
NOTAMs are issued by the DoD/FAA and will open in a separate window not controlled by AirNav.

 

 
 

Would you like to see your business listed on this page?

 If your business provides an interesting product or service to pilots, flight crews, aircraft, or users of the Marlin Airport, you should consider listing it here.  To start the listing process, click on the button below
 
Add a business
 

Other Pages about Marlin Airport

Update a link
 
Copyright © AirNav, LLC. All rights reserved. Privacy Policy  Contact